Time;durP1;ratioP1;P1;durP2;ratioP2;P2;SDS_P1;SDS_P2;PMS_P1;PMS_P2;Temp;Humidity;BMP_temperature;BMP_pressure;BME280_temperature;BME280_humidity;BME280_pressure;Samples;Min_cycle;Max_cycle;Signal;HPM_P1;HPM_P2
2021/06/04 00:01:31;;;;;;;1.48;1.37;;;;;;;15.67;56.83;100644.13;4404434;32;34215;-76
2021/06/04 00:03:59;;;;;;;1.48;1.20;;;;;;;15.60;57.36;100648.41;4404552;32;33707;-75
2021/06/04 00:06:27;;;;;;;2.08;0.70;;;;;;;15.24;58.15;100656.63;4416853;32;35915;-76
2021/06/04 00:08:55;;;;;;;;;;;;;;;15.58;57.80;100641.56;4389739;32;34918;-77
2021/06/04 00:11:30;;;;;;;1.83;1.10;;;;;;;15.63;57.30;100645.44;4416290;32;32820;-76
2021/06/04 00:14:21;;;;;;;1.10;1.10;;;;;;;15.80;56.51;100639.22;4403929;32;32861;-76
2021/06/04 00:17:06;;;;;;;0.75;0.68;;;;;;;15.60;57.02;100640.37;4423463;32;33710;-76
2021/06/04 00:19:35;;;;;;;4.32;0.93;;;;;;;15.45;57.18;100641.94;4407870;32;35310;-76
2021/06/04 00:22:11;;;;;;;1.17;1.08;;;;;;;15.04;58.15;100641.69;4403518;32;34549;-75
2021/06/04 00:24:41;;;;;;;1.73;1.20;;;;;;;14.95;59.67;100645.28;4416999;32;33017;-76
2021/06/04 00:27:12;;;;;;;1.75;1.10;;;;;;;15.40;57.92;100652.28;4395326;32;33219;-76
2021/06/04 00:29:42;;;;;;;1.17;0.85;;;;;;;15.63;57.09;100649.97;4430642;32;33706;-76
2021/06/04 00:32:13;;;;;;;2.05;1.23;;;;;;;15.57;57.05;100640.69;4404132;32;33163;-76
2021/06/04 00:34:42;;;;;;;1.17;1.08;;;;;;;15.67;56.90;100640.63;4404105;32;32987;-76
2021/06/04 00:37:11;;;;;;;2.03;1.23;;;;;;;15.61;56.86;100636.72;4414355;32;35520;-75
2021/06/04 00:39:41;;;;;;;1.15;1.05;;;;;;;15.60;57.05;100636.87;4416159;32;33870;-76
2021/06/04 00:42:18;;;;;;;1.75;0.73;;;;;;;15.61;57.23;100636.72;4378985;32;34802;-76
2021/06/04 00:44:50;;;;;;;1.05;1.00;;;;;;;15.62;57.01;100634.88;4403731;32;32942;-76
2021/06/04 00:47:19;;;;;;;0.75;0.75;;;;;;;15.44;57.62;100642.94;4416803;32;35041;-76
2021/06/04 00:49:49;;;;;;;1.15;0.75;;;;;;;15.38;57.83;100643.56;4414651;32;34232;-75
2021/06/04 00:52:21;;;;;;;0.43;0.43;;;;;;;15.32;57.85;100646.84;4402850;32;33696;-76
2021/06/04 00:54:51;;;;;;;1.75;1.05;;;;;;;15.20;57.41;100644.53;4404510;32;33406;-76
2021/06/04 00:57:22;;;;;;;0.73;0.73;;;;;;;15.38;57.54;100643.56;4413925;32;34701;-76
2021/06/04 00:59:59;;;;;;;1.30;1.20;;;;;;;15.58;56.81;100641.56;4403261;32;36396;-76
2021/06/04 01:02:30;;;;;;;1.48;1.35;;;;;;;15.55;56.29;100637.34;4403655;32;34569;-76
2021/06/04 01:05:01;;;;;;;1.37;1.02;;;;;;;15.60;56.42;100640.37;4412781;32;35120;-76
2021/06/04 01:07:29;;;;;;;0.73;0.60;;;;;;;15.45;56.68;100646.44;4416372;32;35602;-76
2021/06/04 01:10:26;;;;;;;;;;;;;;;15.43;56.65;100638.59;4430935;32;34346;-76
2021/06/04 01:13:16;;;;;;;0.85;0.82;;;;;;;15.49;56.19;100632.59;4352312;32;33332;-75
2021/06/04 01:16:02;;;;;;;2.80;2.03;;;;;;;15.46;56.56;100632.03;4327890;32;32692;-76
2021/06/04 01:19:03;;;;;;;4.07;1.02;;;;;;;15.42;56.99;100630.69;4352800;32;33764;-75
2021/06/04 01:21:44;;;;;;;0.68;0.68;;;;;;;15.39;56.52;100631.00;4363718;32;35654;-76
2021/06/04 01:24:46;;;;;;;0.73;0.40;;;;;;;15.25;57.31;100636.87;4366876;32;33512;-76
2021/06/04 01:27:21;;;;;;;1.25;1.17;;;;;;;15.47;57.20;100637.25;4352241;32;32950;-76
2021/06/04 01:30:00;;;;;;;0.52;0.50;;;;;;;14.73;59.07;100638.50;4355376;32;36282;-76
2021/06/04 01:32:33;;;;;;;1.35;0.77;;;;;;;15.09;58.08;100626.84;4340130;32;33641;-76
2021/06/04 01:35:10;;;;;;;0.75;0.75;;;;;;;15.25;57.38;100631.50;4362895;32;33131;-75
2021/06/04 01:37:39;;;;;;;1.35;1.23;;;;;;;15.31;57.19;100633.59;4341781;32;33993;-76
2021/06/04 01:40:27;;;;;;;0.75;0.75;;;;;;;15.34;57.58;100628.78;4342495;32;36771;-75
2021/06/04 01:43:01;;;;;;;1.27;0.50;;;;;;;15.40;57.07;100640.72;4358749;32;34225;-76
2021/06/04 01:45:34;;;;;;;0.52;0.52;;;;;;;15.50;57.04;100634.25;4351410;32;32787;-75
2021/06/04 01:48:09;;;;;;;1.00;0.82;;;;;;;15.48;56.57;100628.22;4354518;32;33791;-75
2021/06/04 01:50:48;;;;;;;0.70;0.68;;;;;;;15.58;55.80;100622.78;4425051;32;35588;-76
2021/06/04 01:53:25;;;;;;;0.65;0.45;;;;;;;15.56;55.92;100627.44;4392750;32;34347;-76
2021/06/04 01:56:17;;;;;;;2.08;1.20;;;;;;;15.61;56.04;100620.63;4391332;32;32488;-76
2021/06/04 01:58:55;;;;;;;1.25;0.80;;;;;;;15.65;55.89;100623.81;4403526;32;33748;-75
2021/06/04 02:01:37;;;;;;;1.98;1.73;;;;;;;15.67;55.69;100628.03;4402584;32;36141;-75
2021/06/04 02:04:13;;;;;;;0.75;0.75;;;;;;;15.67;55.74;100628.03;4398769;32;34806;-76
2021/06/04 02:06:43;;;;;;;3.85;1.08;;;;;;;15.50;56.32;100623.53;4416286;32;33632;-76
2021/06/04 02:09:15;;;;;;;0.93;0.93;;;;;;;15.39;56.97;100626.47;4403968;32;32791;-75
2021/06/04 02:11:44;;;;;;;1.42;0.65;;;;;;;15.28;57.16;100628.50;4416068;32;35578;-76
2021/06/04 02:14:23;;;;;;;3.33;0.90;;;;;;;15.51;56.27;100621.72;4399669;32;34012;-76
2021/06/04 02:17:19;;;;;;;1.55;0.70;;;;;;;15.35;56.59;100627.78;4403782;32;34060;-75
2021/06/04 02:20:06;;;;;;;1.17;0.90;;;;;;;15.55;56.12;100634.66;4403426;32;31862;-76
2021/06/04 02:23:07;;;;;;;1.37;1.05;;;;;;;15.49;56.60;100621.84;4413758;32;36431;-76
2021/06/04 02:25:42;;;;;;;2.80;1.17;;;;;;;15.38;56.57;100627.47;4415961;32;34141;-76
2021/06/04 02:28:27;;;;;;;1.45;1.10;;;;;;;15.45;56.51;100625.00;4417696;32;32979;-77
2021/06/04 02:31:04;;;;;;;3.12;1.08;;;;;;;15.27;56.99;100630.34;4402056;32;33700;-76
2021/06/04 02:33:43;;;;;;;2.28;0.70;;;;;;;15.37;56.47;100628.47;4403345;32;35792;-76
2021/06/04 02:36:16;;;;;;;0.77;0.75;;;;;;;15.40;56.52;100635.38;4403478;32;35197;-76
2021/06/04 02:38:59;;;;;;;2.22;1.48;;;;;;;15.50;56.21;100631.59;4400878;32;33324;-75
2021/06/04 02:41:36;;;;;;;0.68;0.68;;;;;;;15.52;56.16;100640.34;4403839;32;33135;-76
2021/06/04 02:44:12;;;;;;;1.27;1.17;;;;;;;15.50;56.37;100630.75;4392751;32;34750;-76
2021/06/04 02:46:47;;;;;;;1.00;0.98;;;;;;;15.33;56.60;100632.47;4415402;32;33852;-75
2021/06/04 02:49:19;;;;;;;0.65;0.65;;;;;;;15.44;56.54;100626.84;4398486;32;33064;-76
2021/06/04 02:52:20;;;;;;;1.02;0.82;;;;;;;15.44;56.55;100626.84;4429470;32;33619;-76
2021/06/04 02:54:51;;;;;;;1.98;1.30;;;;;;;15.39;56.90;100629.16;4426591;32;34314;-76
2021/06/04 02:57:24;;;;;;;1.42;1.30;;;;;;;15.44;56.48;100631.38;4390421;32;34704;-76
2021/06/04 02:59:52;;;;;;;0.68;0.60;;;;;;;15.45;56.73;100633.03;4401973;32;33043;-76
2021/06/04 03:02:30;;;;;;;0.70;0.70;;;;;;;15.32;57.72;100641.47;4400369;32;33483;-76
2021/06/04 03:05:24;;;;;;;0.52;0.50;;;;;;;15.43;57.18;100638.59;4396482;32;35700;-76
2021/06/04 03:07:53;;;;;;;2.28;0.60;;;;;;;15.66;56.29;100645.12;4416079;32;33746;-75
2021/06/04 03:10:36;;;;;;;1.00;1.00;;;;;;;15.69;56.12;100646.66;4405526;32;32906;-75
2021/06/04 03:13:11;;;;;;;1.17;1.12;;;;;;;15.62;56.20;100643.78;4412406;32;34313;-76
2021/06/04 03:15:48;;;;;;;0.30;0.30;;;;;;;15.67;55.87;100644.13;4428402;32;34214;-76
2021/06/04 03:18:26;;;;;;;0.82;0.43;;;;;;;15.68;56.28;100656.53;4415183;32;33905;-76
2021/06/04 03:20:55;;;;;;;2.22;1.30;;;;;;;15.63;56.09;100649.97;4400031;32;33106;-76
2021/06/04 03:23:35;;;;;;;0.62;0.62;;;;;;;15.50;56.49;100653.03;4401763;32;32787;-76
2021/06/04 03:26:11;;;;;;;1.48;1.27;;;;;;;15.55;56.97;100664.16;4414265;32;34081;-76
2021/06/04 03:28:42;;;;;;;0.85;0.85;;;;;;;15.14;58.34;100659.38;4413779;32;34819;-76
2021/06/04 03:31:12;;;;;;;1.48;0.90;;;;;;;15.42;57.63;100661.00;4390163;32;35283;-76
2021/06/04 03:33:40;;;;;;;0.95;0.93;;;;;;;15.53;58.38;100660.78;4412642;32;34840;-76
2021/06/04 03:36:12;;;;;;;1.85;1.30;;;;;;;15.78;57.93;100664.50;4402584;32;34828;-76
2021/06/04 03:38:41;;;;;;;1.12;0.88;;;;;;;15.83;57.69;100659.50;4375426;32;33029;-76
2021/06/04 03:41:12;;;;;;;0.93;0.88;;;;;;;15.84;57.00;100658.50;4390118;32;34056;-76
2021/06/04 03:43:42;;;;;;;3.90;0.95;;;;;;;15.95;56.06;100669.00;4400331;32;33269;-76
2021/06/04 03:46:10;;;;;;;;;;;;;;;15.98;56.15;100674.03;4402586;32;35759;-76
2021/06/04 03:48:40;;;;;;;3.35;2.55;;;;;;;16.11;55.79;100671.75;4427638;32;34032;-77
2021/06/04 03:51:13;;;;;;;1.33;1.10;;;;;;;15.90;56.71;100677.53;4400087;32;33656;-77
2021/06/04 03:53:41;;;;;;;1.10;0.88;;;;;;;16.03;56.76;100680.63;4395717;32;35632;-76
2021/06/04 03:56:13;;;;;;;1.67;1.40;;;;;;;16.09;56.96;100681.81;4401725;32;35899;-77
2021/06/04 03:58:44;;;;;;;0.82;0.77;;;;;;;16.04;57.24;100681.47;4388861;32;34079;-76
2021/06/04 04:01:17;;;;;;;1.10;0.60;;;;;;;16.11;56.69;100685.19;4412508;32;35388;-76
2021/06/04 04:03:45;;;;;;;1.83;0.80;;;;;;;16.15;56.22;100686.56;4399301;32;34493;-76
2021/06/04 04:06:13;;;;;;;;;;;;;;;16.15;56.18;100683.88;4403279;32;34674;-76
2021/06/04 04:08:40;;;;;;;;;;;;;;;16.25;55.83;100676.56;4416112;32;33142;-76
2021/06/04 04:11:09;;;;;;;3.72;0.80;;;;;;;16.31;55.76;100684.81;4414804;32;33088;-76
2021/06/04 04:13:37;;;;;;;1.12;1.02;;;;;;;16.13;56.17;100688.59;4402737;32;34870;-77
2021/06/04 04:16:07;;;;;;;1.05;0.90;;;;;;;16.19;56.66;100683.41;4416106;32;34928;-76
2021/06/04 04:18:38;;;;;;;0.70;0.55;;;;;;;16.28;56.97;100687.84;4429709;32;35079;-76
2021/06/04 04:21:09;;;;;;;1.80;1.35;;;;;;;16.30;56.98;100687.66;4416909;32;32728;-76
2021/06/04 04:23:48;;;;;;;2.60;1.40;;;;;;;16.24;56.95;100685.63;4409936;32;34252;-76
2021/06/04 04:26:19;;;;;;;1.35;1.23;;;;;;;16.41;56.56;100685.56;4391070;32;35972;-76
2021/06/04 04:28:50;;;;;;;1.27;0.68;;;;;;;16.54;56.46;100685.97;4402407;32;35577;-76
2021/06/04 04:31:21;;;;;;;1.30;1.20;;;;;;;16.54;56.49;100680.59;4405999;32;33987;-77
2021/06/04 04:33:51;;;;;;;5.97;2.33;;;;;;;16.66;55.95;100684.69;4390534;32;34458;-76
2021/06/04 04:36:26;;;;;;;0.73;0.70;;;;;;;16.68;55.90;100681.84;4400707;32;36483;-77
2021/06/04 04:38:55;;;;;;;2.75;1.23;;;;;;;16.70;56.17;100682.53;4402276;32;35862;-76
2021/06/04 04:41:24;;;;;;;1.42;0.98;;;;;;;16.67;57.09;100686.38;4416328;32;33729;-77
2021/06/04 04:43:55;;;;;;;1.45;1.30;;;;;;;16.40;58.23;100688.41;4403282;32;32795;-76
2021/06/04 04:46:25;;;;;;;2.70;1.15;;;;;;;16.67;57.42;100689.06;4415602;32;36258;-76
2021/06/04 04:48:54;;;;;;;1.42;1.33;;;;;;;16.74;57.60;100695.50;4429100;32;33846;-76
2021/06/04 04:51:24;;;;;;;1.12;1.12;;;;;;;16.70;57.85;100691.44;4403197;32;33455;-76
2021/06/04 04:53:53;;;;;;;0.90;0.80;;;;;;;16.87;57.37;100693.19;4403326;32;33594;-76
2021/06/04 04:56:22;;;;;;;0.65;0.65;;;;;;;17.01;56.75;100695.25;4402936;32;35263;-76
2021/06/04 04:58:51;;;;;;;0.57;0.57;;;;;;;16.80;57.81;100683.25;4402194;32;34097;-77
2021/06/04 05:01:22;;;;;;;1.77;1.33;;;;;;;17.11;56.91;100689.72;4401831;32;33926;-77
2021/06/04 05:03:51;;;;;;;1.83;1.35;;;;;;;17.19;56.47;100693.25;4404426;32;33511;-77
2021/06/04 05:06:19;;;;;;;2.35;2.12;;;;;;;17.12;56.56;100686.03;4407898;32;34381;-77
2021/06/04 05:08:47;;;;;;;1.70;1.60;;;;;;;17.23;56.43;100700.00;4401858;32;34380;-77
2021/06/04 05:11:16;;;;;;;1.75;1.25;;;;;;;17.23;56.54;100694.63;4429487;32;32807;-76
2021/06/04 05:13:48;;;;;;;1.35;1.25;;;;;;;17.38;55.74;100700.25;4391768;32;34953;-78
2021/06/04 05:16:17;;;;;;;1.20;0.88;;;;;;;17.42;54.77;100698.88;4402355;32;36117;-77
2021/06/04 05:18:46;;;;;;;1.98;1.83;;;;;;;17.66;53.72;100695.22;4415867;32;35112;-77
2021/06/04 05:21:16;;;;;;;1.55;1.20;;;;;;;17.73;53.71;100695.38;4400964;32;33082;-78
2021/06/04 05:23:44;;;;;;;1.50;1.40;;;;;;;17.74;55.05;100694.37;4415349;32;34437;-78
2021/06/04 05:26:13;;;;;;;2.03;0.80;;;;;;;17.95;54.95;100698.25;4415263;32;35549;-78
2021/06/04 05:28:43;;;;;;;1.50;1.12;;;;;;;18.03;55.39;100700.94;4402735;32;33998;-78
2021/06/04 05:31:12;;;;;;;1.58;1.20;;;;;;;18.08;54.80;100697.72;4414597;32;33118;-78
2021/06/04 05:33:44;;;;;;;3.53;1.10;;;;;;;18.32;54.76;100698.56;4401945;32;32724;-78
2021/06/04 05:36:16;;;;;;;1.58;1.25;;;;;;;18.35;54.85;100694.69;4389740;32;33528;-77
2021/06/04 05:38:46;;;;;;;2.15;1.52;;;;;;;18.59;54.14;100691.94;4429255;32;34511;-77
2021/06/04 05:41:15;;;;;;;1.40;1.12;;;;;;;18.77;53.78;100701.44;4414262;32;33849;-78
2021/06/04 05:43:45;;;;;;;1.45;1.00;;;;;;;18.87;53.33;100693.97;4403102;32;33630;-78
2021/06/04 05:46:15;;;;;;;1.77;1.30;;;;;;;19.00;52.97;100693.44;4402454;32;34791;-77
2021/06/04 05:48:43;;;;;;;2.08;1.10;;;;;;;19.12;52.84;100690.16;4428806;32;35081;-77
2021/06/04 05:51:30;;;;;;;1.42;0.90;;;;;;;19.31;52.71;100699.69;4401979;32;32246;-77
2021/06/04 05:53:59;;;;;;;1.77;1.20;;;;;;;19.09;53.39;100695.88;4401686;32;33670;-77
2021/06/04 05:56:27;;;;;;;;;;;;;;;19.26;53.25;100694.81;4402351;32;33788;-77
2021/06/04 05:58:56;;;;;;;0.85;0.85;;;;;;;19.61;53.33;100701.47;4428778;32;35337;-78
2021/06/04 06:01:29;;;;;;;2.05;1.50;;;;;;;19.70;52.27;100697.72;4400986;32;33235;-77
2021/06/04 06:03:59;;;;;;;2.50;1.48;;;;;;;19.69;51.74;100699.59;4401691;32;33839;-76
2021/06/04 06:06:27;;;;;;;3.45;1.00;;;;;;;19.80;51.47;100701.03;4401436;32;35881;-77
2021/06/04 06:08:55;;;;;;;6.90;1.65;;;;;;;19.91;51.78;100700.59;4414193;32;34667;-77
2021/06/04 06:11:26;;;;;;;1.48;0.70;;;;;;;20.13;51.56;100703.28;4427895;32;33070;-78
2021/06/04 06:13:56;;;;;;;1.62;1.48;;;;;;;20.24;51.13;100702.84;4401292;32;32695;-77
2021/06/04 06:16:27;;;;;;;2.05;1.00;;;;;;;20.27;50.39;100701.63;4428323;32;35651;-77
2021/06/04 06:18:56;;;;;;;1.45;1.23;;;;;;;20.01;48.26;100703.88;4414783;32;34187;-78
2021/06/04 06:21:26;;;;;;;1.58;1.27;;;;;;;20.39;49.48;100711.78;4401149;32;32493;-77
2021/06/04 06:23:55;;;;;;;1.15;1.05;;;;;;;19.93;48.03;100709.34;4402158;32;33674;-78
2021/06/04 06:26:28;;;;;;;1.30;1.20;;;;;;;20.57;48.35;100706.84;4395229;32;33371;-77
2021/06/04 06:29:01;;;;;;;2.65;1.17;;;;;;;20.34;46.30;100707.97;4414136;32;34909;-77
2021/06/04 06:31:33;;;;;;;1.60;1.30;;;;;;;20.45;45.88;100710.22;4413818;32;33267;-76
2021/06/04 06:34:03;;;;;;;3.28;1.35;;;;;;;20.32;46.37;100704.59;4401857;32;33118;-76
2021/06/04 06:36:33;;;;;;;0.90;0.85;;;;;;;20.50;45.05;100708.66;4414469;32;34038;-77
2021/06/04 06:39:09;;;;;;;1.00;0.93;;;;;;;20.92;42.45;100707.00;4415133;32;34001;-78
2021/06/04 06:41:39;;;;;;;1.02;0.62;;;;;;;21.27;42.71;100710.75;4402987;32;34258;-77
2021/06/04 06:44:07;;;;;;;1.60;1.37;;;;;;;21.28;42.41;100701.59;4415275;32;33790;-77
2021/06/04 06:46:35;;;;;;;4.22;1.58;;;;;;;21.59;41.64;100704.81;4401355;32;35131;-77
2021/06/04 06:49:04;;;;;;;1.52;1.17;;;;;;;21.90;43.29;100708.09;4401714;32;35094;-77
2021/06/04 06:51:35;;;;;;;1.00;1.00;;;;;;;22.28;43.03;100704.03;4428658;32;33329;-77
2021/06/04 06:54:08;;;;;;;2.08;1.40;;;;;;;22.39;42.12;100700.78;4413721;32;33711;-78
2021/06/04 06:56:36;;;;;;;2.42;0.80;;;;;;;22.12;41.49;100710.59;4414257;32;36230;-77
2021/06/04 06:59:04;;;;;;;5.00;1.15;;;;;;;22.07;41.24;100695.94;4400840;32;33210;-78
2021/06/04 07:01:32;;;;;;;4.22;1.10;;;;;;;22.92;41.52;100700.91;4388928;32;33927;-78
2021/06/04 07:04:00;;;;;;;1.20;1.02;;;;;;;23.04;40.71;100698.47;4388643;32;33894;-78
2021/06/04 07:06:34;;;;;;;1.23;0.62;;;;;;;23.24;40.97;100699.41;4391545;32;34406;-77
2021/06/04 07:09:05;;;;;;;2.80;2.47;;;;;;;22.79;41.24;100697.28;4414845;32;33054;-77
2021/06/04 07:11:39;;;;;;;1.67;1.27;;;;;;;22.50;41.66;100700.25;4416667;32;32658;-77
2021/06/04 07:14:09;;;;;;;0.85;0.85;;;;;;;23.00;41.62;100697.19;4404124;32;33929;-77
2021/06/04 07:16:38;;;;;;;3.15;1.27;;;;;;;23.37;40.73;100691.28;4416741;32;35330;-78
2021/06/04 07:19:07;;;;;;;2.45;1.17;;;;;;;23.66;41.83;100704.53;4428790;32;34259;-77
2021/06/04 07:21:37;;;;;;;2.00;1.52;;;;;;;23.88;39.65;100707.72;4416370;32;32117;-77
2021/06/04 07:24:05;;;;;;;1.58;1.05;;;;;;;23.82;41.61;100705.78;4415816;32;34702;-77
2021/06/04 07:26:34;;;;;;;2.00;1.25;;;;;;;23.56;40.33;100701.34;4428380;32;34758;-77
2021/06/04 07:29:03;;;;;;;2.05;1.85;;;;;;;23.69;40.85;100707.66;4415475;32;35390;-78
2021/06/04 07:31:30;;;;;;;1.17;1.08;;;;;;;24.06;41.30;100707.94;4429228;32;33721;-77
2021/06/04 07:34:02;;;;;;;1.77;1.27;;;;;;;24.02;39.63;100701.25;4418238;32;33649;-78
2021/06/04 07:36:37;;;;;;;0.90;0.73;;;;;;;24.11;41.47;100701.87;4417700;32;36092;-76
2021/06/04 07:39:07;;;;;;;0.95;0.90;;;;;;;24.29;35.34;100702.09;4417324;32;35848;-77
2021/06/04 07:41:36;;;;;;;2.72;1.20;;;;;;;24.43;35.06;100703.72;4430888;32;34891;-76
2021/06/04 07:44:05;;;;;;;1.17;1.08;;;;;;;24.40;33.29;100699.56;4417389;32;33845;-76
2021/06/04 07:46:34;;;;;;;1.45;1.35;;;;;;;24.54;34.30;100700.41;4405162;32;34519;-77
2021/06/04 07:49:03;;;;;;;1.45;0.98;;;;;;;24.65;33.33;100697.84;4417019;32;35522;-77
2021/06/04 07:51:38;;;;;;;1.17;1.08;;;;;;;24.52;32.86;100697.00;4411839;32;34024;-77
2021/06/04 07:54:08;;;;;;;0.80;0.80;;;;;;;24.77;33.67;100701.63;4418095;32;33612;-77
2021/06/04 07:56:36;;;;;;;3.25;1.52;;;;;;;24.46;33.54;100706.03;4418282;32;35675;-76
2021/06/04 07:59:07;;;;;;;1.27;1.08;;;;;;;24.38;33.37;100701.63;4418708;32;34846;-77
2021/06/04 08:01:36;;;;;;;1.52;1.42;;;;;;;24.61;32.31;100709.38;4430528;32;35578;-77
2021/06/04 08:04:05;;;;;;;1.48;1.37;;;;;;;24.75;32.33;100695.53;4430074;32;33840;-78
2021/06/04 08:06:33;;;;;;;0.80;0.80;;;;;;;24.70;34.02;100699.94;4430492;32;34774;-77
2021/06/04 08:09:04;;;;;;;0.75;0.75;;;;;;;24.53;33.70;100706.84;4405047;32;34506;-77
2021/06/04 08:11:36;;;;;;;1.25;1.12;;;;;;;24.71;32.35;100705.19;4431007;32;32833;-78
2021/06/04 08:14:08;;;;;;;1.92;1.23;;;;;;;24.63;34.59;100708.13;4405756;32;34362;-77
2021/06/04 08:16:40;;;;;;;1.05;1.00;;;;;;;25.01;33.53;100713.69;4428389;32;34878;-76
2021/06/04 08:19:09;;;;;;;1.48;1.30;;;;;;;24.91;33.99;100702.41;4430829;32;35261;-77
2021/06/04 08:21:41;;;;;;;1.15;1.05;;;;;;;24.89;32.02;100709.94;4405725;32;35015;-78
2021/06/04 08:24:11;;;;;;;0.85;0.70;;;;;;;25.07;32.59;100707.34;4429259;32;34597;-78
2021/06/04 08:26:41;;;;;;;1.65;0.90;;;;;;;25.04;31.21;100705.88;4417581;32;36551;-77
2021/06/04 08:29:10;;;;;;;0.70;0.65;;;;;;;25.16;32.83;100709.62;4417097;32;35715;-78
2021/06/04 08:31:38;;;;;;;1.30;1.20;;;;;;;25.17;33.06;100705.84;4430338;32;33801;-78
2021/06/04 08:34:09;;;;;;;1.15;0.77;;;;;;;25.11;32.62;100705.88;4417098;32;36156;-78
2021/06/04 08:36:39;;;;;;;6.07;1.73;;;;;;;25.20;32.49;100707.31;4417908;32;34720;-78
2021/06/04 08:39:12;;;;;;;2.87;1.15;;;;;;;24.93;31.81;100709.28;4430727;32;34833;-77
2021/06/04 08:42:01;;;;;;;1.92;1.65;;;;;;;24.84;35.50;100713.28;4416888;32;33993;-78
2021/06/04 08:44:48;;;;;;;1.45;1.27;;;;;;;25.19;32.88;100702.94;4429951;32;34367;-78
2021/06/04 08:47:17;;;;;;;1.52;1.42;;;;;;;25.39;34.54;100704.50;4430391;32;35557;-77
2021/06/04 08:50:26;;;;;;;1.10;1.00;;;;;;;25.64;31.79;100702.69;4444682;32;34094;-77
2021/06/04 08:53:01;;;;;;;1.67;1.48;;;;;;;25.52;33.04;100700.88;4412525;32;34436;-78
2021/06/04 08:55:44;;;;;;;1.23;1.10;;;;;;;25.66;32.37;100697.84;4416805;32;33533;-77
2021/06/04 08:58:53;;;;;;;2.20;2.03;;;;;;;25.91;33.01;100695.19;4418708;32;34488;-77
2021/06/04 09:01:31;;;;;;;2.08;1.08;;;;;;;25.95;32.39;100686.34;4429257;32;34968;-77
2021/06/04 09:04:04;;;;;;;3.62;1.37;;;;;;;26.02;33.10;100683.56;4430178;32;33443;-77
2021/06/04 09:06:41;;;;;;;2.53;2.33;;;;;;;25.70;35.03;100690.06;4405897;32;34404;-77
2021/06/04 09:09:21;;;;;;;3.00;1.33;;;;;;;26.09;32.98;100690.66;4405707;32;34170;-78
2021/06/04 09:11:53;;;;;;;2.50;1.48;;;;;;;25.95;32.28;100678.16;4445049;32;34305;-76
2021/06/04 09:14:22;;;;;;;1.30;1.20;;;;;;;25.99;33.31;100684.87;4430497;32;33040;-76
2021/06/04 09:17:00;;;;;;;1.33;1.23;;;;;;;26.40;32.63;100676.91;4444646;32;33469;-77
2021/06/04 09:19:39;;;;;;;1.25;1.15;;;;;;;26.64;32.29;100691.59;4430434;32;35538;-77
2021/06/04 09:22:08;;;;;;;2.35;1.60;;;;;;;26.29;32.00;100685.00;4417474;32;34311;-77
2021/06/04 09:24:41;;;;;;;4.57;1.35;;;;;;;26.37;30.23;100676.53;4416889;32;34342;-77
2021/06/04 09:27:28;;;;;;;1.00;1.00;;;;;;;26.69;33.53;100676.22;4429481;32;33206;-78
2021/06/04 09:30:08;;;;;;;1.65;1.55;;;;;;;26.45;31.75;100677.09;4417272;32;35605;-77
2021/06/04 09:32:38;;;;;;;1.65;1.55;;;;;;;26.95;31.72;100684.09;4424551;32;34418;-77
2021/06/04 09:35:09;;;;;;;1.75;1.55;;;;;;;27.02;31.45;100669.28;4404308;32;34818;-77
2021/06/04 09:37:38;;;;;;;1.52;1.42;;;;;;;26.91;29.39;100666.53;4430116;32;34147;-76
2021/06/04 09:40:30;;;;;;;3.10;1.70;;;;;;;27.09;31.42;100669.22;4405210;32;33763;-77
2021/06/04 09:43:01;;;;;;;1.80;1.20;;;;;;;27.05;29.87;100664.47;4430148;32;34098;-77
2021/06/04 09:45:42;;;;;;;1.00;0.82;;;;;;;27.07;30.66;100665.88;4444266;32;34482;-77
2021/06/04 09:48:13;;;;;;;1.65;1.12;;;;;;;26.63;32.81;100666.22;4417585;32;33625;-78
2021/06/04 09:50:44;;;;;;;1.33;1.23;;;;;;;27.03;30.76;100661.94;4429453;32;33615;-77
2021/06/04 09:53:16;;;;;;;2.55;1.20;;;;;;;27.02;31.07;100662.16;4417692;32;35028;-77
2021/06/04 09:56:06;;;;;;;4.28;2.58;;;;;;;27.24;31.54;100664.22;4415963;32;34212;-79
2021/06/04 09:58:52;;;;;;;1.98;1.27;;;;;;;26.71;30.82;100656.88;4443959;32;33654;-78
2021/06/04 10:01:26;;;;;;;1.80;1.70;;;;;;;26.62;31.12;100658.25;4429165;32;33860;-77
2021/06/04 10:03:58;;;;;;;1.45;1.35;;;;;;;26.80;29.87;100661.81;4417811;32;34200;-77
2021/06/04 10:06:27;;;;;;;1.15;1.10;;;;;;;27.15;30.76;100651.13;4430065;32;33292;-77
2021/06/04 10:09:23;;;;;;;5.57;1.35;;;;;;;26.90;29.93;100658.53;4417907;32;32577;-77
2021/06/04 10:12:00;;;;;;;1.25;1.00;;;;;;;27.70;29.97;100661.66;4427629;32;34828;-77
2021/06/04 10:14:56;;;;;;;2.78;1.50;;;;;;;27.62;30.97;100657.34;4417508;32;34178;-78
2021/06/04 10:20:30;;;;;;;1.17;1.02;;;;;;;28.01;31.65;100653.16;4429496;32;34035;-78
2021/06/04 10:23:14;;;;;;;1.20;1.00;;;;;;;28.21;29.13;100657.22;4444006;32;33999;-78
2021/06/04 10:25:47;;;;;;;1.12;1.02;;;;;;;28.47;28.29;100656.78;4394168;32;35687;-78
2021/06/04 10:28:39;;;;;;;1.37;1.05;;;;;;;28.79;26.86;100640.78;4443966;32;33107;-79
2021/06/04 10:31:17;;;;;;;2.45;1.83;;;;;;;29.12;26.32;100640.94;4417025;32;33486;-80
2021/06/04 10:33:54;;;;;;;1.60;1.50;;;;;;;28.83;26.37;100648.28;4443553;32;35750;-78
2021/06/04 10:36:25;;;;;;;0.90;0.90;;;;;;;28.35;28.22;100642.28;4416905;32;35224;-78
2021/06/04 10:38:57;;;;;;;2.03;1.37;;;;;;;28.45;27.06;100644.41;4429733;32;33834;-77
2021/06/04 10:42:00;;;;;;;1.48;1.10;;;;;;;28.60;27.09;100640.09;4406448;32;33186;-78
2021/06/04 10:44:44;;;;;;;1.20;1.10;;;;;;;29.08;25.48;100645.25;4417468;32;34589;-77
2021/06/04 10:47:23;;;;;;;1.00;1.00;;;;;;;29.80;26.53;100628.00;4425859;32;33885;-77
2021/06/04 10:50:06;;;;;;;2.60;1.62;;;;;;;29.67;24.53;100629.16;4418375;32;34206;-78
2021/06/04 10:53:12;;;;;;;0.82;0.82;;;;;;;30.32;24.41;100626.66;4443698;32;34181;-78
2021/06/04 10:55:45;;;;;;;2.45;1.20;;;;;;;30.66;25.32;100620.84;4366771;32;36083;-78
2021/06/04 10:58:28;;;;;;;1.20;1.20;;;;;;;31.08;25.04;100611.75;4354754;32;35080;-79
2021/06/04 11:00:59;;;;;;;0.82;0.82;;;;;;;31.42;23.99;100615.19;4346546;32;34817;-79
2021/06/04 11:03:42;;;;;;;1.10;1.00;;;;;;;31.77;24.54;100618.28;4367415;32;33025;-77
2021/06/04 11:06:16;;;;;;;1.30;1.08;;;;;;;31.51;25.08;100608.12;4331172;32;34942;-77
2021/06/04 11:09:30;;;;;;;1.77;1.67;;;;;;;32.06;21.25;100600.34;4365914;32;33979;-77
2021/06/04 11:12:37;;;;;;;1.27;1.17;;;;;;;31.96;22.97;100601.12;4355218;32;33461;-77
2021/06/04 11:15:20;;;;;;;1.75;1.37;;;;;;;32.11;23.55;100594.88;4366496;32;34680;-77
2021/06/04 11:17:56;;;;;;;1.17;1.17;;;;;;;32.92;23.84;100595.09;4365887;32;33918;-77
2021/06/04 11:20:48;;;;;;;1.30;1.23;;;;;;;33.21;22.19;100590.75;4363886;32;34717;-77
2021/06/04 11:23:21;;;;;;;0.98;0.88;;;;;;;32.68;24.03;100593.88;4341772;32;33591;-76
2021/06/04 11:26:00;;;;;;;1.02;1.02;;;;;;;33.18;20.54;100588.56;4342499;32;33596;-77
2021/06/04 11:28:33;;;;;;;0.80;0.80;;;;;;;33.31;22.50;100590.81;4342313;32;36771;-76
2021/06/04 11:31:06;;;;;;;1.23;1.00;;;;;;;32.26;20.35;100590.34;4427233;32;35565;-77
2021/06/04 11:33:36;;;;;;;0.82;0.82;;;;;;;33.09;20.16;100583.81;4410172;32;32894;-77
2021/06/04 11:36:20;;;;;;;1.48;1.37;;;;;;;33.22;22.66;100580.56;4428151;32;33811;-78
2021/06/04 11:38:59;;;;;;;1.15;1.05;;;;;;;33.52;20.96;100575.97;4415862;32;34955;-77
2021/06/04 11:41:48;;;;;;;1.62;1.52;;;;;;;33.80;20.65;100571.84;4391774;32;33690;-78
2021/06/04 11:44:49;;;;;;;2.72;1.77;;;;;;;33.46;21.39;100576.19;4401920;32;33313;-79
2021/06/04 11:47:29;;;;;;;3.45;1.00;;;;;;;33.55;19.89;100572.63;4375426;32;33639;-76
2021/06/04 11:50:35;;;;;;;1.58;1.40;;;;;;;33.09;22.14;100567.28;4417313;32;34926;-77
2021/06/04 11:53:25;;;;;;;1.55;1.45;;;;;;;32.95;20.86;100566.16;4428551;32;34367;-77
2021/06/04 11:56:12;;;;;;;0.93;0.93;;;;;;;32.83;19.75;100563.63;4414566;32;34403;-77
2021/06/04 11:58:45;;;;;;;1.02;0.98;;;;;;;32.80;21.22;100566.94;4402672;32;33396;-77
2021/06/04 12:01:21;;;;;;;2.75;1.25;;;;;;;33.26;21.42;100565.16;4429295;32;34189;-77
2021/06/04 12:03:51;;;;;;;2.53;1.15;;;;;;;33.36;19.08;100549.44;4428735;32;34536;-76
2021/06/04 12:06:23;;;;;;;1.35;1.20;;;;;;;33.38;20.95;100554.69;4413828;32;33895;-76